createdAt,value
2019-05-21T00:00:02.978Z,7.37
2019-05-21T00:01:07.221Z,6.73
2019-05-21T00:02:10.865Z,9.23
2019-05-21T00:03:15.073Z,7.77
2019-05-21T00:04:27.950Z,8.23
2019-05-21T00:05:25.180Z,7.97
2019-05-21T00:06:28.875Z,6.80
2019-05-21T00:07:33.131Z,6.57
2019-05-21T00:08:36.770Z,9.47
2019-05-21T00:09:40.988Z,9.60
2019-05-21T00:10:44.717Z,12.33
2019-05-21T00:11:48.909Z,9.00
2019-05-21T00:12:52.532Z,8.50
2019-05-21T00:13:56.742Z,8.03
2019-05-21T00:15:00.442Z,8.30
2019-05-21T00:16:04.705Z,10.37
2019-05-21T00:17:08.341Z,7.13
2019-05-21T00:18:12.620Z,9.90
2019-05-21T00:19:16.622Z,9.83
2019-05-21T00:20:21.018Z,9.27
2019-05-21T00:21:24.711Z,9.37
2019-05-21T00:22:28.900Z,13.20
2019-05-21T00:23:32.531Z,8.10
2019-05-21T00:24:36.842Z,8.80
2019-05-21T00:25:40.839Z,9.33
2019-05-21T00:26:45.023Z,7.33
2019-05-21T00:27:48.714Z,11.20
2019-05-21T00:29:28.959Z,7.63
2019-05-21T00:31:09.100Z,9.33
2019-05-21T00:32:49.367Z,10.53
2019-05-21T00:34:43.266Z,9.73
2019-05-21T00:36:12.011Z,9.80
2019-05-21T00:37:52.700Z,9.83
2019-05-21T00:39:32.379Z,7.33
2019-05-21T00:41:12.968Z,7.53
2019-05-21T00:42:19.523Z,10.63
2019-05-21T00:43:41.902Z,6.50
2019-05-21T00:44:45.927Z,9.93
2019-05-21T00:45:50.131Z,6.77
2019-05-21T00:46:53.776Z,11.33
2019-05-21T00:47:57.964Z,6.87
2019-05-21T00:49:02.582Z,10.17
2019-05-21T00:50:08.472Z,9.23
2019-05-21T00:51:12.125Z,8.80
2019-05-21T00:52:16.424Z,6.13
2019-05-21T00:53:20.034Z,8.53
2019-05-21T00:54:24.260Z,7.43
2019-05-21T00:55:28.015Z,10.47
2019-05-21T00:56:32.527Z,9.07
2019-05-21T00:57:36.161Z,7.27
2019-05-21T00:58:40.367Z,8.97
2019-05-21T00:59:44.027Z,6.63
2019-05-21T01:00:48.206Z,8.83
2019-05-21T01:01:51.922Z,13.97
2019-05-21T01:02:56.220Z,8.43
2019-05-21T01:03:59.853Z,10.60
2019-05-21T01:05:04.370Z,9.10
2019-05-21T01:06:08.025Z,8.47
2019-05-21T01:07:12.287Z,9.80
2019-05-21T01:08:16.024Z,8.77
2019-05-21T01:09:20.333Z,8.60
2019-05-21T01:10:23.993Z,12.27
2019-05-21T01:11:28.205Z,6.57
2019-05-21T01:12:32.142Z,9.57
2019-05-21T01:13:36.345Z,8.93
2019-05-21T01:14:40.000Z,10.37
2019-05-21T01:15:44.320Z,11.13
2019-05-21T01:16:48.026Z,8.50
2019-05-21T01:17:52.335Z,10.50
2019-05-21T01:18:55.962Z,9.40
2019-05-21T01:20:00.151Z,7.67
2019-05-21T01:21:04.296Z,7.37
2019-05-21T01:22:08.510Z,7.63
2019-05-21T01:23:12.147Z,6.40
2019-05-21T01:24:16.433Z,7.53
2019-05-21T01:25:20.063Z,5.57
2019-05-21T01:26:24.295Z,6.97
2019-05-21T01:27:27.932Z,6.50
2019-05-21T01:28:32.138Z,6.77
2019-05-21T01:29:35.775Z,4.73
2019-05-21T01:30:39.954Z,5.87
2019-05-21T01:31:43.959Z,4.80
2019-05-21T01:32:48.145Z,5.53
2019-05-21T01:33:51.822Z,6.60
2019-05-21T01:34:56.130Z,8.33
2019-05-21T01:36:00.151Z,10.00
2019-05-21T01:37:04.377Z,4.53
2019-05-21T01:38:08.134Z,7.30
2019-05-21T01:39:12.745Z,9.33
2019-05-21T01:40:16.370Z,5.30
2019-05-21T01:41:20.652Z,9.97
2019-05-21T01:42:24.318Z,6.63
2019-05-21T01:43:28.864Z,6.30
2019-05-21T01:44:32.543Z,5.30
2019-05-21T01:45:36.732Z,5.47
2019-05-21T01:46:40.299Z,6.07
2019-05-21T01:47:44.649Z,5.33
2019-05-21T01:48:48.312Z,8.50
2019-05-21T01:49:52.555Z,7.20
2019-05-21T01:50:56.182Z,6.13
2019-05-21T01:52:00.362Z,6.33
2019-05-21T01:53:04.063Z,7.53
2019-05-21T01:54:08.345Z,11.70
2019-05-21T01:55:11.986Z,8.33
2019-05-21T01:56:16.175Z,13.67
2019-05-21T01:57:20.243Z,6.87
2019-05-21T01:58:24.459Z,9.20
2019-05-21T01:59:28.143Z,7.20
2019-05-21T02:00:32.452Z,7.00
2019-05-21T02:01:36.082Z,9.93
2019-05-21T02:02:40.239Z,5.30
2019-05-21T02:03:43.937Z,7.60
2019-05-21T02:04:48.244Z,8.30
2019-05-21T02:05:52.152Z,9.50
2019-05-21T02:06:59.027Z,5.47
2019-05-21T02:08:02.669Z,5.70
2019-05-21T02:09:08.178Z,6.53
2019-05-21T02:10:12.140Z,8.97
2019-05-21T02:11:16.446Z,5.33
2019-05-21T02:12:20.513Z,4.47
2019-05-21T02:13:24.816Z,3.63
2019-05-21T02:14:28.508Z,5.33
2019-05-21T02:15:32.750Z,5.33
2019-05-21T02:16:36.807Z,4.00
2019-05-21T02:17:41.236Z,6.63
2019-05-21T02:18:44.866Z,4.57
2019-05-21T02:19:49.162Z,6.20
2019-05-21T02:20:52.794Z,6.30
2019-05-21T02:21:57.000Z,10.00
2019-05-21T02:23:00.761Z,9.37
2019-05-21T02:24:05.066Z,11.47
2019-05-21T02:25:09.753Z,5.23
2019-05-21T02:26:14.076Z,7.00
2019-05-21T02:27:18.009Z,6.53
2019-05-21T02:28:22.537Z,4.80
2019-05-21T02:29:26.174Z,8.50
2019-05-21T02:30:30.422Z,4.53
2019-05-21T02:31:36.114Z,8.77
2019-05-21T02:32:41.068Z,5.57
2019-05-21T02:33:44.607Z,8.33
2019-05-21T02:34:49.185Z,5.50
2019-05-21T02:35:54.837Z,6.07
2019-05-21T02:36:58.822Z,6.47
2019-05-21T02:38:02.447Z,5.53
2019-05-21T02:39:08.748Z,5.40
2019-05-21T02:40:12.898Z,4.77
2019-05-21T02:41:17.119Z,8.13
2019-05-21T02:42:20.698Z,6.90
2019-05-21T02:43:25.296Z,4.27
2019-05-21T02:44:28.863Z,8.43
2019-05-21T02:45:33.039Z,5.00
2019-05-21T02:46:36.734Z,4.57
2019-05-21T02:47:40.939Z,4.67
2019-05-21T02:48:44.567Z,5.13
2019-05-21T02:49:48.779Z,6.27
2019-05-21T02:50:52.804Z,5.67
2019-05-21T02:51:57.018Z,9.07
2019-05-21T02:53:00.668Z,5.50
2019-05-21T02:54:05.329Z,5.93
2019-05-21T02:55:09.369Z,4.90
2019-05-21T02:56:13.581Z,7.00
2019-05-21T02:57:17.341Z,6.83
2019-05-21T02:58:21.546Z,5.80
2019-05-21T02:59:25.172Z,5.93
2019-05-21T03:00:30.537Z,6.33
2019-05-21T03:01:35.831Z,9.50
2019-05-21T03:02:42.902Z,6.13
2019-05-21T03:03:46.530Z,9.67
2019-05-21T03:04:51.019Z,6.83
2019-05-21T03:06:12.460Z,8.00
2019-05-21T03:07:04.815Z,5.50
2019-05-21T03:08:08.541Z,8.80
2019-05-21T03:09:12.774Z,7.53
2019-05-21T03:10:16.404Z,6.53
2019-05-21T03:11:20.593Z,7.03
2019-05-21T03:12:24.311Z,11.33
2019-05-21T03:13:28.615Z,7.90
2019-05-21T03:14:32.249Z,9.13
2019-05-21T03:15:36.447Z,7.43
2019-05-21T03:16:40.071Z,6.10
2019-05-21T03:17:44.259Z,11.83
2019-05-21T03:18:48.009Z,8.83
2019-05-21T03:19:52.345Z,8.03
2019-05-21T03:20:55.970Z,7.10
2019-05-21T03:22:00.161Z,4.60
2019-05-21T03:23:03.833Z,9.20
2019-05-21T03:24:08.008Z,7.17
2019-05-21T03:25:12.276Z,5.97
2019-05-21T03:26:16.778Z,8.30
2019-05-21T03:27:20.452Z,11.60
2019-05-21T03:28:25.054Z,7.03
2019-05-21T03:29:28.656Z,9.47
2019-05-21T03:30:32.909Z,11.07
2019-05-21T03:31:36.537Z,10.43
2019-05-21T03:32:40.734Z,16.50
2019-05-21T03:33:44.447Z,9.43
2019-05-21T03:34:48.756Z,10.80
2019-05-21T03:35:52.485Z,8.07
2019-05-21T03:36:56.761Z,8.07
2019-05-21T03:38:00.398Z,10.40
2019-05-21T03:39:05.715Z,8.13
2019-05-21T03:40:09.642Z,10.20
2019-05-21T03:41:13.992Z,9.73
2019-05-21T03:42:17.620Z,5.10
2019-05-21T03:43:21.873Z,7.63
2019-05-21T03:44:25.550Z,6.57
2019-05-21T03:45:29.727Z,6.47
2019-05-21T03:46:34.322Z,6.73
2019-05-21T03:47:38.580Z,9.07
2019-05-21T03:48:42.227Z,7.20
2019-05-21T03:49:46.523Z,6.13
2019-05-21T03:50:50.549Z,4.57
2019-05-21T03:51:54.766Z,4.70
2019-05-21T03:52:58.394Z,10.37
2019-05-21T03:54:02.512Z,5.23
2019-05-21T03:55:06.295Z,7.73
2019-05-21T03:56:10.601Z,5.93
2019-05-21T03:57:14.260Z,5.80
2019-05-21T03:58:18.505Z,7.50
2019-05-21T03:59:22.623Z,8.73
2019-05-21T04:00:26.818Z,5.73
2019-05-21T04:01:30.501Z,13.63
2019-05-21T04:02:34.724Z,6.40
2019-05-21T04:03:38.798Z,12.87
2019-05-21T04:04:43.000Z,9.47
2019-05-21T04:05:46.627Z,6.20
2019-05-21T04:06:52.941Z,7.07
2019-05-21T04:07:56.865Z,9.17
2019-05-21T04:09:00.977Z,9.17
2019-05-21T04:10:14.898Z,5.93
2019-05-21T04:11:19.089Z,9.37
2019-05-21T04:12:22.695Z,9.27
2019-05-21T04:13:28.159Z,13.17
2019-05-21T04:14:33.453Z,6.23
2019-05-21T04:15:56.910Z,7.17
2019-05-21T04:17:02.805Z,8.00
2019-05-21T04:18:27.138Z,8.27
2019-05-21T04:19:44.397Z,13.30
2019-05-21T04:20:48.517Z,10.80
2019-05-21T04:21:52.246Z,8.97
2019-05-21T04:22:56.598Z,13.03
2019-05-21T04:24:00.255Z,20.97
2019-05-21T04:25:11.075Z,10.17
2019-05-21T04:26:14.869Z,15.60
2019-05-21T04:27:19.051Z,15.57
2019-05-21T04:28:22.701Z,15.07
2019-05-21T04:29:27.031Z,10.77
2019-05-21T04:30:30.649Z,10.27
2019-05-21T04:31:35.230Z,11.33
2019-05-21T04:32:38.876Z,11.97
2019-05-21T04:33:43.069Z,12.53
2019-05-21T04:34:46.804Z,24.10
2019-05-21T04:35:51.112Z,13.50
2019-05-21T04:37:09.392Z,15.83
2019-05-21T04:38:00.854Z,16.00
2019-05-21T04:39:05.987Z,12.17
2019-05-21T04:40:10.505Z,13.93
2019-05-21T04:41:14.216Z,20.70
2019-05-21T04:42:18.417Z,27.30
2019-05-21T04:43:22.428Z,33.17
2019-05-21T04:44:26.649Z,20.80
2019-05-21T04:45:30.301Z,14.80
2019-05-21T04:46:34.501Z,15.03
2019-05-21T04:47:38.162Z,20.70
2019-05-21T04:48:42.395Z,15.97
2019-05-21T04:49:46.029Z,16.73
2019-05-21T04:50:50.280Z,12.10
2019-05-21T04:51:53.910Z,10.90
2019-05-21T04:52:58.094Z,11.47
2019-05-21T04:54:01.781Z,11.13
2019-05-21T04:55:07.096Z,12.33
2019-05-21T04:56:10.689Z,18.40
2019-05-21T04:57:14.880Z,12.20
2019-05-21T04:58:18.490Z,21.40
2019-05-21T04:59:22.645Z,12.17
2019-05-21T05:00:26.320Z,9.00
2019-05-21T05:01:30.597Z,8.77
2019-05-21T05:02:34.231Z,8.03
2019-05-21T05:03:38.424Z,10.67
2019-05-21T05:04:42.143Z,8.63
2019-05-21T05:05:46.350Z,8.17
2019-05-21T05:06:50.085Z,8.90
2019-05-21T05:07:54.410Z,16.63
2019-05-21T05:08:58.029Z,15.33
2019-05-21T05:10:02.665Z,10.57
2019-05-21T05:11:06.316Z,9.47
2019-05-21T05:12:10.545Z,12.97
2019-05-21T05:13:14.211Z,11.33
2019-05-21T05:14:18.771Z,10.93
2019-05-21T05:15:22.417Z,6.90
2019-05-21T05:16:26.726Z,12.57
2019-05-21T05:17:30.380Z,9.53
2019-05-21T05:18:34.569Z,6.10
2019-05-21T05:19:38.686Z,13.83
2019-05-21T05:20:42.892Z,8.77
2019-05-21T05:21:46.504Z,10.47
2019-05-21T05:22:50.727Z,8.87
2019-05-21T05:23:54.381Z,12.10
2019-05-21T05:24:58.564Z,7.70
2019-05-21T05:26:04.270Z,10.53
2019-05-21T05:27:08.482Z,22.13
2019-05-21T05:28:12.144Z,12.30
2019-05-21T05:29:16.463Z,7.60
2019-05-21T05:30:20.255Z,8.30
2019-05-21T05:31:24.661Z,8.50
2019-05-21T05:32:28.294Z,11.47
2019-05-21T05:33:33.483Z,11.40
2019-05-21T05:34:37.111Z,12.67
2019-05-21T05:35:41.295Z,10.90
2019-05-21T05:36:45.073Z,10.20
2019-05-21T05:37:49.389Z,12.03
2019-05-21T05:38:53.052Z,10.30
2019-05-21T05:39:57.682Z,10.40
2019-05-21T05:41:01.892Z,9.80
2019-05-21T05:42:06.077Z,8.90
2019-05-21T05:43:12.356Z,12.20
2019-05-21T05:44:19.454Z,11.90
2019-05-21T05:45:23.281Z,9.80
2019-05-21T05:46:27.495Z,8.97
2019-05-21T05:47:31.123Z,10.97
2019-05-21T05:48:36.390Z,13.73
2019-05-21T05:49:42.087Z,11.47
2019-05-21T05:50:50.141Z,11.47
2019-05-21T05:51:53.978Z,10.30
2019-05-21T05:52:58.317Z,12.67
2019-05-21T05:54:02.127Z,10.40
2019-05-21T05:55:07.978Z,8.77
2019-05-21T05:56:14.038Z,11.53
2019-05-21T05:57:18.359Z,10.40
2019-05-21T05:58:22.175Z,11.30
2019-05-21T05:59:26.389Z,10.73
2019-05-21T06:00:30.142Z,10.53
2019-05-21T06:01:34.643Z,9.00
2019-05-21T06:02:38.289Z,10.47
2019-05-21T06:03:42.504Z,12.10
2019-05-21T06:04:46.502Z,11.13
2019-05-21T06:05:50.732Z,12.33
2019-05-21T06:06:54.495Z,10.63
2019-05-21T06:08:00.413Z,8.90
2019-05-21T06:09:05.595Z,6.37
2019-05-21T06:10:09.931Z,9.40
2019-05-21T06:11:13.594Z,8.97
2019-05-21T06:12:17.788Z,10.40
2019-05-21T06:13:21.842Z,8.33
2019-05-21T06:14:26.055Z,5.50
2019-05-21T06:15:29.689Z,7.23
2019-05-21T06:16:33.971Z,7.60
2019-05-21T06:17:37.762Z,8.80
2019-05-21T06:18:42.401Z,9.03
2019-05-21T06:19:46.189Z,12.37
2019-05-21T06:20:50.392Z,13.00
2019-05-21T06:21:54.167Z,9.63
2019-05-21T06:22:58.381Z,11.97
2019-05-21T06:24:02.018Z,9.50
2019-05-21T06:25:08.089Z,7.00
2019-05-21T06:26:11.958Z,4.73
2019-05-21T06:27:16.555Z,11.40
2019-05-21T06:28:20.573Z,7.17
2019-05-21T06:29:24.840Z,5.23
2019-05-21T06:30:28.543Z,7.20
2019-05-21T06:31:32.728Z,6.17
2019-05-21T06:32:36.429Z,6.50
2019-05-21T06:33:40.614Z,9.03
2019-05-21T06:34:44.680Z,7.00
2019-05-21T06:35:48.883Z,7.20
2019-05-21T06:36:52.518Z,7.60
2019-05-21T06:37:57.183Z,12.77
2019-05-21T06:39:00.843Z,6.93
2019-05-21T06:40:06.254Z,8.70
2019-05-21T06:41:10.057Z,8.87
2019-05-21T06:42:14.264Z,8.67
2019-05-21T06:43:17.932Z,9.53
2019-05-21T06:44:22.150Z,11.43
2019-05-21T06:45:25.979Z,8.47
2019-05-21T06:46:30.184Z,8.87
2019-05-21T06:47:33.816Z,5.90
2019-05-21T06:48:38.036Z,9.13
2019-05-21T06:49:41.694Z,3.30
2019-05-21T06:50:45.873Z,3.80
2019-05-21T06:51:49.547Z,6.73
2019-05-21T06:52:53.756Z,5.07
2019-05-21T06:53:57.439Z,7.43
2019-05-21T06:55:01.657Z,4.00
2019-05-21T06:56:07.673Z,10.67
2019-05-21T06:57:11.277Z,14.80
2019-05-21T06:58:14.935Z,6.03
2019-05-21T06:59:19.198Z,4.00
2019-05-21T07:00:23.057Z,8.57
2019-05-21T07:01:29.182Z,6.23
2019-05-21T07:02:32.568Z,5.37
2019-05-21T07:03:36.699Z,9.30
2019-05-21T07:04:40.387Z,6.43
2019-05-21T07:05:58.223Z,6.97
2019-05-21T07:06:49.978Z,6.17
2019-05-21T07:07:54.900Z,11.13
2019-05-21T07:08:58.531Z,5.37
2019-05-21T07:10:02.884Z,6.87
2019-05-21T07:11:06.970Z,3.50
2019-05-21T07:12:11.571Z,3.73
2019-05-21T07:13:15.298Z,3.07
2019-05-21T07:14:19.580Z,7.30
2019-05-21T07:15:23.289Z,4.23
2019-05-21T07:16:27.474Z,3.90
2019-05-21T07:17:31.138Z,5.30
2019-05-21T07:18:35.338Z,3.03
2019-05-21T07:19:39.538Z,8.03
2019-05-21T07:20:43.804Z,3.80
2019-05-21T07:21:47.799Z,8.10
2019-05-21T07:22:52.166Z,1.93
2019-05-21T07:23:55.936Z,7.93
2019-05-21T07:25:00.151Z,4.73
2019-05-21T07:26:04.206Z,5.03
2019-05-21T07:27:08.800Z,5.10
2019-05-21T07:28:12.512Z,3.67
2019-05-21T07:29:16.707Z,7.80
2019-05-21T07:30:20.346Z,4.40
2019-05-21T07:31:24.595Z,2.70
2019-05-21T07:32:28.267Z,6.93
2019-05-21T07:33:32.791Z,13.10
2019-05-21T07:34:36.424Z,6.63
2019-05-21T07:35:40.609Z,5.63
2019-05-21T07:36:44.315Z,4.10
2019-05-21T07:37:48.514Z,5.73
2019-05-21T07:38:54.140Z,8.33
2019-05-21T07:39:58.063Z,8.17
2019-05-21T07:41:01.816Z,9.67
2019-05-21T07:42:06.015Z,3.90
2019-05-21T07:43:09.685Z,5.20
2019-05-21T07:44:13.973Z,2.47
2019-05-21T07:45:17.606Z,2.95
2019-05-21T07:46:21.836Z,3.87
2019-05-21T07:47:25.481Z,4.67
2019-05-21T07:48:29.720Z,5.83
2019-05-21T07:49:33.392Z,1.95
2019-05-21T07:50:37.606Z,3.30
2019-05-21T07:51:41.543Z,2.92
2019-05-21T07:52:45.785Z,2.33
2019-05-21T07:53:49.820Z,2.60
2019-05-21T07:54:54.021Z,2.77
2019-05-21T07:55:57.732Z,3.30
2019-05-21T07:57:01.952Z,2.85
2019-05-21T07:58:05.617Z,3.12
2019-05-21T07:59:09.800Z,3.42
2019-05-21T08:00:13.555Z,1.90
2019-05-21T08:01:17.867Z,2.17
2019-05-21T08:02:21.531Z,1.40
2019-05-21T08:03:25.756Z,5.83
2019-05-21T08:04:29.744Z,2.00
2019-05-21T08:05:33.955Z,2.70
2019-05-21T08:06:37.610Z,1.42
2019-05-21T08:07:41.802Z,2.30
2019-05-21T08:08:45.583Z,1.40
2019-05-21T08:09:49.804Z,1.77
2019-05-21T08:10:53.436Z,3.55
2019-05-21T08:11:57.628Z,1.77
2019-05-21T08:13:01.383Z,3.30
2019-05-21T08:14:06.001Z,2.77
2019-05-21T08:15:10.029Z,2.25
2019-05-21T08:16:14.108Z,3.50
2019-05-21T08:17:17.691Z,1.35
2019-05-21T08:18:22.007Z,9.68
2019-05-21T08:19:25.657Z,1.07
2019-05-21T08:20:30.095Z,1.37
2019-05-21T08:21:33.750Z,1.72
2019-05-21T08:22:37.942Z,3.10
2019-05-21T08:23:41.589Z,1.15
2019-05-21T08:24:45.753Z,1.05
2019-05-21T08:25:49.740Z,2.22
2019-05-21T08:26:53.999Z,2.55
2019-05-21T08:27:57.634Z,2.90
2019-05-21T08:29:01.904Z,3.92
2019-05-21T08:30:07.484Z,1.65
2019-05-21T08:31:12.077Z,1.70
2019-05-21T08:32:15.633Z,3.20
2019-05-21T08:33:20.259Z,0.93
2019-05-21T08:34:23.927Z,2.27
2019-05-21T08:35:28.217Z,3.15
2019-05-21T08:36:32.220Z,1.87
2019-05-21T08:37:36.408Z,2.52
2019-05-21T08:38:40.091Z,2.27
2019-05-21T08:39:44.373Z,3.02
2019-05-21T08:40:48.007Z,2.55
2019-05-21T08:41:52.263Z,1.62
2019-05-21T08:42:55.895Z,2.77
2019-05-21T08:44:00.078Z,2.65
2019-05-21T08:45:05.352Z,1.98
2019-05-21T08:46:09.761Z,3.47
2019-05-21T08:47:13.401Z,4.28
2019-05-21T08:48:17.589Z,3.25
2019-05-21T08:49:21.319Z,4.00
2019-05-21T08:50:25.607Z,2.80
2019-05-21T08:51:29.260Z,3.08
2019-05-21T08:52:33.462Z,1.47
2019-05-21T08:53:37.097Z,1.37
2019-05-21T08:54:50.977Z,4.35
2019-05-21T08:55:54.669Z,1.60
2019-05-21T08:56:59.246Z,3.45
2019-05-21T08:58:07.274Z,2.87
2019-05-21T08:59:08.804Z,1.45
2019-05-21T09:00:15.580Z,3.87
2019-05-21T09:01:19.816Z,1.85
2019-05-21T09:02:24.628Z,2.98
2019-05-21T09:03:29.231Z,2.08
2019-05-21T09:04:45.994Z,2.40
2019-05-21T09:05:38.778Z,1.15
2019-05-21T09:06:42.470Z,1.60
2019-05-21T09:07:52.919Z,3.00
2019-05-21T09:08:52.042Z,3.27
2019-05-21T09:09:56.243Z,2.20
2019-05-21T09:11:00.263Z,2.42
2019-05-21T09:12:04.496Z,1.85
2019-05-21T09:13:08.126Z,1.95
2019-05-21T09:14:12.700Z,1.55
2019-05-21T09:15:17.306Z,1.32
2019-05-21T09:16:21.516Z,2.30
2019-05-21T09:17:25.328Z,3.27
2019-05-21T09:18:29.572Z,1.50
2019-05-21T09:19:36.451Z,2.95
2019-05-21T09:20:39.136Z,4.80
2019-05-21T09:21:42.785Z,1.15
2019-05-21T09:22:47.026Z,2.92
2019-05-21T09:23:50.727Z,1.50
2019-05-21T09:24:54.941Z,5.15
2019-05-21T09:25:58.591Z,3.65
2019-05-21T09:27:02.835Z,1.98
2019-05-21T09:28:06.600Z,1.30
2019-05-21T09:29:10.906Z,2.67
2019-05-21T09:30:16.823Z,1.82
2019-05-21T09:31:21.016Z,2.33
2019-05-21T09:32:24.676Z,1.90
2019-05-21T09:33:28.955Z,3.37
2019-05-21T09:34:47.536Z,1.60
2019-05-21T09:35:38.562Z,3.72
2019-05-21T09:36:42.180Z,6.87
2019-05-21T09:37:46.463Z,2.10
2019-05-21T09:38:50.145Z,2.87
2019-05-21T09:39:54.351Z,5.67
2019-05-21T09:40:58.032Z,5.12
2019-05-21T09:42:02.478Z,3.12
2019-05-21T09:43:06.088Z,1.80
2019-05-21T09:44:10.329Z,2.02
2019-05-21T09:45:14.899Z,1.87
2019-05-21T09:46:19.081Z,5.15
2019-05-21T09:47:22.743Z,3.37
2019-05-21T09:48:26.986Z,3.65
2019-05-21T09:49:30.645Z,3.95
2019-05-21T09:50:35.822Z,4.53
2019-05-21T09:51:39.777Z,2.02
2019-05-21T09:52:43.958Z,2.50
2019-05-21T09:53:47.616Z,3.05
2019-05-21T09:54:51.932Z,2.22
2019-05-21T09:55:55.998Z,2.02
2019-05-21T09:57:00.271Z,2.87
2019-05-21T09:58:05.552Z,2.25
2019-05-21T09:59:15.022Z,4.05
2019-05-21T10:00:36.210Z,4.50
2019-05-21T10:01:41.961Z,2.00
2019-05-21T10:02:46.131Z,1.65
2019-05-21T10:03:54.549Z,2.40
2019-05-21T10:04:58.861Z,3.27
2019-05-21T10:06:02.558Z,3.65
2019-05-21T10:07:06.786Z,2.10
2019-05-21T10:08:10.430Z,1.42
2019-05-21T10:09:19.147Z,1.32
2019-05-21T10:10:22.856Z,1.35
2019-05-21T10:11:27.061Z,4.65
2019-05-21T10:12:30.866Z,4.85
2019-05-21T10:13:35.127Z,1.95
2019-05-21T10:14:38.828Z,1.82
2019-05-21T10:15:43.071Z,1.87
2019-05-21T10:16:46.770Z,4.30
2019-05-21T10:17:53.055Z,1.62
2019-05-21T10:18:57.042Z,1.50
2019-05-21T10:20:01.246Z,4.12
2019-05-21T10:21:05.182Z,1.65
2019-05-21T10:22:10.089Z,1.90
2019-05-21T10:23:14.142Z,1.32
2019-05-21T10:24:18.351Z,2.27
2019-05-21T10:25:22.020Z,2.92
2019-05-21T10:26:26.369Z,1.70
2019-05-21T10:27:30.090Z,3.47
2019-05-21T10:28:34.306Z,2.80
2019-05-21T10:29:38.280Z,2.37
2019-05-21T10:30:42.564Z,3.30
2019-05-21T10:31:46.296Z,2.95
2019-05-21T10:32:50.562Z,3.10
2019-05-21T10:33:54.351Z,2.75
2019-05-21T10:35:00.553Z,2.37
2019-05-21T10:36:04.884Z,3.77
2019-05-21T10:37:09.103Z,1.07
2019-05-21T10:38:12.845Z,2.52
2019-05-21T10:39:17.212Z,5.37
2019-05-21T10:40:21.235Z,1.37
2019-05-21T10:41:25.489Z,1.50
2019-05-21T10:42:29.082Z,2.35
2019-05-21T10:43:33.338Z,2.25
2019-05-21T10:44:37.141Z,2.75
2019-05-21T10:45:41.325Z,5.10
2019-05-21T10:46:45.099Z,2.45
2019-05-21T10:47:49.120Z,2.08
2019-05-21T10:48:52.824Z,3.83
2019-05-21T10:49:57.048Z,2.80
2019-05-21T10:51:01.477Z,1.15
2019-05-21T10:52:06.172Z,1.92
2019-05-21T10:53:09.817Z,2.83
2019-05-21T10:54:14.035Z,3.95
2019-05-21T10:55:17.901Z,2.02
2019-05-21T10:56:22.120Z,1.50
2019-05-21T10:57:26.261Z,1.95
2019-05-21T10:58:30.672Z,4.75
2019-05-21T10:59:34.384Z,2.70
2019-05-21T11:00:38.799Z,2.67
2019-05-21T11:01:56.182Z,4.50
2019-05-21T11:03:07.384Z,1.30
2019-05-21T11:04:15.436Z,2.35
2019-05-21T11:05:36.396Z,2.37
2019-05-21T11:06:41.435Z,1.23
2019-05-21T11:07:45.753Z,3.08
2019-05-21T11:08:49.424Z,4.00
2019-05-21T11:09:53.669Z,2.07
2019-05-21T11:10:57.464Z,3.00
2019-05-21T11:12:01.805Z,4.23
2019-05-21T11:13:05.713Z,3.53
2019-05-21T11:14:10.292Z,3.83
2019-05-21T11:15:14.609Z,3.40
2019-05-21T11:16:18.795Z,4.62
2019-05-21T11:17:22.498Z,4.47
2019-05-21T11:18:26.670Z,5.20
2019-05-21T11:19:33.226Z,2.25
2019-05-21T11:20:37.559Z,1.10
2019-05-21T11:21:41.263Z,0.80
2019-05-21T11:22:45.556Z,2.95
2019-05-21T11:23:49.256Z,1.72
2019-05-21T11:24:53.669Z,2.75
2019-05-21T11:25:57.326Z,3.87
2019-05-21T11:27:04.728Z,2.70
2019-05-21T11:28:07.518Z,2.80
2019-05-21T11:29:11.703Z,1.17
2019-05-21T11:30:17.180Z,2.20
2019-05-21T11:31:21.374Z,4.70
2019-05-21T11:32:25.077Z,1.55
2019-05-21T11:33:29.339Z,0.80
2019-05-21T11:34:33.106Z,3.22
2019-05-21T11:35:37.374Z,3.33
2019-05-21T11:36:41.155Z,1.80
2019-05-21T11:37:47.845Z,2.30
2019-05-21T11:38:50.817Z,1.95
2019-05-21T11:39:55.058Z,1.40
2019-05-21T11:40:58.807Z,2.22
2019-05-21T11:42:03.051Z,1.65
2019-05-21T11:43:07.874Z,0.70
2019-05-21T11:44:12.217Z,0.60
2019-05-21T11:45:31.072Z,3.55
2019-05-21T11:46:21.986Z,1.82
2019-05-21T11:47:25.766Z,4.28
2019-05-21T11:48:30.199Z,1.92
2019-05-21T11:49:33.862Z,1.60
2019-05-21T11:50:38.091Z,0.85
2019-05-21T11:51:42.096Z,0.88
2019-05-21T11:52:46.594Z,1.95
2019-05-21T11:53:50.275Z,2.60
2019-05-21T11:54:55.999Z,0.85
2019-05-21T11:55:59.695Z,1.62
2019-05-21T11:57:03.923Z,1.32
2019-05-21T11:58:07.578Z,0.60
2019-05-21T11:59:11.850Z,2.87
2019-05-21T12:00:16.642Z,2.92
2019-05-21T12:01:22.544Z,1.15
2019-05-21T12:02:26.206Z,0.90
2019-05-21T12:03:30.392Z,0.72
2019-05-21T12:04:34.430Z,1.32
2019-05-21T12:05:38.680Z,2.25
2019-05-21T12:06:42.333Z,2.33
2019-05-21T12:07:46.524Z,2.12
2019-05-21T12:08:56.794Z,2.83
2019-05-21T12:09:56.189Z,2.35
2019-05-21T12:10:59.856Z,1.22
2019-05-21T12:12:04.071Z,1.22
2019-05-21T12:13:07.792Z,1.37
2019-05-21T12:14:11.976Z,1.85
2019-05-21T12:15:16.037Z,1.27
2019-05-21T12:16:20.348Z,2.22
2019-05-21T12:17:23.985Z,1.62
2019-05-21T12:18:28.232Z,2.75
2019-05-21T12:19:31.886Z,2.35
2019-05-21T12:20:37.492Z,2.40
2019-05-21T12:21:41.785Z,0.72
2019-05-21T12:22:46.418Z,2.60
2019-05-21T12:23:50.075Z,1.00
2019-05-21T12:24:54.324Z,0.72
2019-05-21T12:25:58.043Z,3.17
2019-05-21T12:27:02.327Z,3.85
2019-05-21T12:28:06.039Z,3.00
2019-05-21T12:29:10.285Z,1.70
2019-05-21T12:30:14.589Z,1.50
2019-05-21T12:31:18.790Z,4.08
2019-05-21T12:32:22.687Z,0.72
2019-05-21T12:33:26.971Z,1.47
2019-05-21T12:34:30.604Z,1.98
2019-05-21T12:35:34.819Z,0.57
2019-05-21T12:36:38.503Z,1.02
2019-05-21T12:37:42.579Z,1.67
2019-05-21T12:38:46.322Z,2.70
2019-05-21T12:39:50.584Z,2.25
2019-05-21T12:40:54.221Z,2.95
2019-05-21T12:41:58.603Z,1.17
2019-05-21T12:43:02.358Z,2.52
2019-05-21T12:44:06.595Z,1.12
2019-05-21T12:45:10.491Z,0.70
2019-05-21T12:46:14.780Z,3.40
2019-05-21T12:47:18.419Z,1.10
2019-05-21T12:48:22.738Z,1.10
2019-05-21T12:49:26.524Z,0.93
2019-05-21T12:50:30.681Z,1.80
2019-05-21T12:51:34.734Z,0.70
2019-05-21T12:52:40.230Z,1.52
2019-05-21T12:53:43.899Z,1.67
2019-05-21T12:54:48.104Z,2.12
2019-05-21T12:55:51.829Z,1.55
2019-05-21T12:56:56.018Z,1.60
2019-05-21T12:57:59.659Z,1.30
2019-05-21T12:59:04.009Z,2.37
2019-05-21T13:00:10.813Z,2.37
2019-05-21T13:01:15.003Z,3.05
2019-05-21T13:02:19.211Z,1.98
2019-05-21T13:03:23.927Z,1.00
2019-05-21T13:04:27.575Z,1.27
2019-05-21T13:05:31.839Z,2.02
2019-05-21T13:06:35.721Z,1.10
2019-05-21T13:07:40.042Z,1.35
2019-05-21T13:08:43.973Z,2.05
2019-05-21T13:09:48.194Z,1.50
2019-05-21T13:10:52.047Z,0.98
2019-05-21T13:11:56.470Z,1.55
2019-05-21T13:13:00.104Z,2.05
2019-05-21T13:14:07.946Z,3.42
2019-05-21T13:15:11.891Z,3.92
2019-05-21T13:16:16.280Z,2.95
2019-05-21T13:17:19.936Z,0.80
2019-05-21T13:18:24.453Z,1.32
2019-05-21T13:19:28.123Z,2.87
2019-05-21T13:20:32.411Z,0.98
2019-05-21T13:21:36.136Z,3.22
2019-05-21T13:22:40.325Z,1.12
2019-05-21T13:23:43.957Z,1.70
2019-05-21T13:24:48.576Z,1.77
2019-05-21T13:25:52.208Z,1.62
2019-05-21T13:26:56.460Z,2.70
2019-05-21T13:28:00.108Z,4.33
2019-05-21T13:29:04.397Z,1.72
2019-05-21T13:30:08.832Z,2.08
2019-05-21T13:31:13.054Z,1.55
2019-05-21T13:32:16.807Z,1.30
2019-05-21T13:33:21.020Z,1.22
2019-05-21T13:34:24.638Z,1.75
2019-05-21T13:35:29.652Z,1.52
2019-05-21T13:36:33.290Z,2.52
2019-05-21T13:37:37.529Z,1.05
2019-05-21T13:38:41.184Z,2.22
2019-05-21T13:39:50.126Z,1.92
2019-05-21T13:40:51.939Z,2.05
2019-05-21T13:41:56.243Z,2.85
2019-05-21T13:42:59.900Z,3.25
2019-05-21T13:44:04.101Z,2.80
2019-05-21T13:45:11.330Z,0.90
2019-05-21T13:46:15.603Z,0.80
2019-05-21T13:47:19.263Z,1.52
2019-05-21T13:48:23.472Z,1.42
2019-05-21T13:49:27.521Z,2.72
2019-05-21T13:50:31.927Z,1.00
2019-05-21T13:51:35.719Z,2.75
2019-05-21T13:52:39.986Z,3.40
2019-05-21T13:53:43.642Z,2.98
2019-05-21T13:54:47.847Z,1.87
2019-05-21T13:55:51.485Z,3.30
2019-05-21T13:56:55.728Z,4.30
2019-05-21T13:57:59.422Z,2.98
2019-05-21T13:59:03.732Z,2.30
2019-05-21T14:00:10.769Z,1.60
2019-05-21T14:01:17.264Z,1.70
2019-05-21T14:02:21.295Z,3.72
2019-05-21T14:03:25.559Z,1.62
2019-05-21T14:04:29.478Z,2.83
2019-05-21T14:05:35.522Z,4.78
2019-05-21T14:06:40.618Z,6.78
2019-05-21T14:07:44.851Z,1.90
2019-05-21T14:08:48.523Z,4.17
2019-05-21T14:10:12.581Z,0.98
2019-05-21T14:10:58.188Z,0.70
2019-05-21T14:12:02.386Z,2.08
2019-05-21T14:13:06.177Z,2.02
2019-05-21T14:14:10.436Z,3.08
2019-05-21T14:15:14.381Z,2.02
2019-05-21T14:16:18.577Z,1.25
2019-05-21T14:17:22.274Z,1.40